Nearby METAR Reports

 

K1V6 - Canon City, Colorado, USA
Distance from station: E 5mi, 8km
Updated: Sat, 19-Oct-2019 3:50am MDT
Clear
Clear
 Wind from WNW
Wind: WNW 8 mph , 13 km/h
Temperature: 36°F , 2°C
Wind Chill: 30°F , -1°C
Dew Point: 19°F , -7°C
Humidity: 52%
Barometer: 29.96 inHg , 1014.6 hPa
Clouds: Clear
Visibility: 10 miles , 16 km
2019/10/19 09:50 K1V6 190950Z AUTO 29007KT 10SM CLR 02/M07 A2996 RMK AO2
KFCS - Fort Carson, Colorado, USA
Distance from station: NE 28mi, 44km
Updated: Sat, 19-Oct-2019 3:58am MDT
Clear
Clear
 Wind from SW
Wind: SW 7 mph , 11 km/h
Temperature: 41°F , 5°C
Wind Chill: 36°F , 2°C
Dew Point: 23°F , -5°C
Humidity: 49%
Barometer: 29.95 inHg , 1014.2 hPa
Clouds: Clear
Visibility: 10 miles , 16 km
2019/10/19 09:58 KFCS 190958Z AUTO 23006KT 10SM CLR 05/M05 A2995 RMK AO2 SLP137 T00501046
 
KCWN - Cheyenne Mtn, Colorado, USA
Distance from station: NE 28mi, 45km
Updated: Sat, 19-Oct-2019 3:58am MDT
Clear
Clear
 Wind from SW
Wind: SW 13 mph , 20 km/h, Gust: 20 mph , 31 km/h
Temperature: 43°F , 6°C
Wind Chill: 36°F , 2°C
Dew Point: 12°F , -11°C
Humidity: 29%
Barometer: 29.91 inHg , 1012.9 hPa
Clouds: Clear
Visibility: 10 miles , 16 km
2019/10/19 09:58 KCWN 190958Z AUTO 22011G17KT 10SM CLR 06/M11 A2991 RMK AO2 SLP000 T00601108 $
KCOS - Colorado Springs, Colorado, USA
Distance from station: NE 38mi, 60km
Updated: Sat, 19-Oct-2019 3:54am MDT
Clear
Clear
 Wind from SSE
Wind: SSE 10 mph , 17 km/h
Temperature: 37°F , 3°C
Wind Chill: 30°F , -1°C
Dew Point: 25°F , -4°C
Humidity: 60%
Barometer: 29.97 inHg , 1014.9 hPa
Clouds: Clear
Visibility: 10 miles , 16 km
2019/10/19 09:54 KCOS 190954Z 16009KT 10SM CLR 03/M04 A2997 RMK AO2 SLP128 T00331044
 
KPUB - Pueblo, Colorado, USA
Distance from station: ESE 39mi, 63km
Updated: Sat, 19-Oct-2019 3:53am MDT
Clear
Clear
 Wind from calm
Wind: Calm
Temperature: 32°F , 0°C
Dew Point: 21°F , -6°C
Humidity: 64%
Barometer: 29.95 inHg , 1014.2 hPa
Clouds: Clear
Visibility: 10 miles , 16 km
2019/10/19 09:53 KPUB 190953Z AUTO 00000KT 10SM CLR 00/M06 A2995 RMK AO2 SLP119 T00001056
KAFF - Usaf Academy/Cos, Colorado, USA
Distance from station: NNE 41mi, 66km
Updated: Sat, 19-Oct-2019 3:58am MDT
Clear
Clear
 Wind from NNW
Wind: NNW 9 mph , 15 km/h
Temperature: 27°F , -3°C
Wind Chill: 18°F , -8°C
Dew Point: 19°F , -7°C
Humidity: 74%
Barometer: 29.94 inHg , 1013.9 hPa
Clouds: Clear
Visibility: 10 miles , 16 km
2019/10/19 09:58 KAFF 190958Z AUTO 34008KT 10SM CLR M03/M07 A2994 RMK AO2 SLP139 T10321067
 
K4BM - Wilkerson Pass, Colorado, USA
Distance from station: NNW 45mi, 72km
Updated: Sat, 19-Oct-2019 3:53am MDT
Overcast
Overcast
 Wind from WSW
Wind: WSW 12 mph , 19 km/h, Gust: 18 mph , 30 km/h
Temperature: 23°F , -5°C
Wind Chill: 11°F , -12°C
Dew Point: 9°F , -13°C
Humidity: 54%
Barometer: 30.05 inHg , 1017.6 hPa
Clouds: Overcast
Visibility: 10 miles , 16 km
Cloud details: Overcast 10000 ft
2019/10/19 09:53 K4BM 190953Z AUTO 24010G16KT 10SM OVC100 M05/M13 A3005 RMK AO2
KANK - Salida, Colorado, USA
Distance from station: W 47mi, 75km
Updated: Sat, 19-Oct-2019 3:55am MDT
Clear
Clear
 Wind from SE
Wind: SE 3 mph , 6 km/h
Temperature: 28°F , -2°C
Dew Point: 16°F , -9°C
Humidity: 59%
Barometer: 30.08 inHg , 1018.6 hPa
Clouds: Clear
Visibility: 10 miles , 16 km
2019/10/19 09:55 KANK 190955Z AUTO 13003KT 10SM CLR M02/M09 A3008 RMK AO1 T10191093
 
KFLY - Co Spngs Meadow, Colorado, USA
Distance from station: NE 48mi, 78km
Updated: Sat, 19-Oct-2019 3:55am MDT
Clear
Clear
 Wind from SW
Wind: SW 6 mph , 9 km/h
Temperature: 34°F , 1°C
Wind Chill: 29°F , -2°C
Dew Point: 23°F , -5°C
Humidity: 65%
Barometer: 29.98 inHg , 1015.2 hPa
Clouds: Clear
Visibility: 10 miles , 16 km
2019/10/19 09:55 KFLY 190955Z AUTO 22005KT 10SM CLR 01/M05 A2998 RMK AO2 T00101055
KABH - Ellicott-B Afa, Colorado, USA
Distance from station: ENE 53mi, 85km
Updated: Sat, 19-Oct-2019 3:58am MDT
Clear
Clear
 Wind from calm
Wind: Calm
Temperature: 27°F , -3°C
Dew Point: 19°F , -7°C
Humidity: 74%
Barometer: 29.98 inHg , 1015.2 hPa
Clouds: Clear
Visibility: 10 miles , 16 km
2019/10/19 09:58 KABH 190958Z AUTO 00000KT 10SM CLR M03/M07 A2998 RMK AO2 SLP150 T10261068
 
KAEJ - Buena Vista, Colorado, USA
Distance from station: WNW 56mi, 90km
Updated: Sat, 19-Oct-2019 3:55am MDT
Clear
Clear
 Wind from calm
Wind: Calm
Temperature: 28°F , -2°C
Dew Point: 12°F , -11°C
Humidity: 51%
Barometer: 30.00 inHg , 1015.9 hPa
Clouds: Clear
Visibility: 10 miles , 16 km
2019/10/19 09:55 KAEJ 190955Z AUTO 00000KT 10SM CLR M02/M11 A3000 RMK AO2 T10201110
K04V - Saguache Muni, Colorado, USA
Distance from station: WSW 58mi, 93km
Updated: Sat, 19-Oct-2019 3:54am MDT
Clear
Clear
 Wind from NW
Wind: NW 12 mph , 19 km/h
Temperature: 30°F , -1°C
Wind Chill: 20°F , -7°C
Dew Point: 18°F , -8°C
Humidity: 59%
Barometer: 30.04 inHg , 1017.3 hPa
Clouds: Clear
Visibility: 10 miles , 16 km
2019/10/19 09:54 K04V 190954Z AUTO 32010KT 10SM CLR M01/M08 A3004 RMK AO2
 
K7BM - Cottonwood Pass, Colorado, USA
Distance from station: WNW 60mi, 96km
Updated: Sat, 19-Oct-2019 3:48am MDT
Clear
Clear
 Wind from WNW
Wind: WNW 14 mph , 22 km/h, Gust: 28 mph , 44 km/h
Temperature: 34°F , 1°C
Wind Chill: 25°F , -4°C
Dew Point: 12°F , -11°C
Humidity: 41%
Barometer: 30.02 inHg , 1016.6 hPa
Clouds: Clear
Visibility: 10 miles , 16 km
2019/10/19 09:48 K7BM 190948Z AUTO 29012G24KT 10SM CLR 01/M11 A3002 RMK AO2
KMNH - Monument/Elbert, Colorado, USA
Distance from station: NNE 61mi, 98km
Updated: Sat, 19-Oct-2019 3:48am MDT
Clear
Clear
 Wind from S
Wind: S 9 mph , 15 km/h
Temperature: 30°F , -1°C
Wind Chill: 22°F , -6°C
Dew Point: 21°F , -6°C
Humidity: 69%
Barometer: 29.97 inHg , 1014.9 hPa
Clouds: Clear
Visibility: 10 miles , 16 km
2019/10/19 09:48 KMNH 190948Z AUTO 18008KT 10SM CLR M01/M06 A2997 RMK AO2
 
KMYP - Monarch Pass, Colorado, USA
Distance from station: W 61mi, 98km
Updated: Sat, 19-Oct-2019 3:54am MDT
Clear
Clear
 Wind from WSW
Wind: WSW 32 mph , 52 km/h
Temperature: 19°F , -7°C
Wind Chill: -1°F , -18°C
Dew Point: 14°F , -10°C
Humidity: 79%
Barometer: 30.18 inHg , 1022 hPa
Clouds: Clear
Visibility: 10 miles , 16 km
2019/10/19 09:54 KMYP 190954Z AUTO 25028KT 10SM CLR M07/M10 A3018 RMK AO2
KALS - Alamosa, Colorado, USA
Distance from station: SSW 79mi, 127km
Updated: Sat, 19-Oct-2019 3:52am MDT
Clear
Clear
 Wind from W
Wind: W 6 mph , 9 km/h
Temperature: 23°F , -5°C
Wind Chill: 16°F , -9°C
Dew Point: 19°F , -7°C
Humidity: 86%
Barometer: 30.04 inHg , 1017.3 hPa
Clouds: Clear
Visibility: 10 miles , 16 km
2019/10/19 09:52 KALS 190952Z AUTO 26005KT 10SM CLR M05/M07 A3004 RMK AO2 SLP153 T10501072
 
KAPA - Denver/Arapahoe, Colorado, USA
Distance from station: NNE 79mi, 128km
Updated: Sat, 19-Oct-2019 3:53am MDT
Few Clouds
Few Clouds
 Wind from SSE
Wind: SSE 7 mph , 11 km/h
Temperature: 36°F , 2°C
Wind Chill: 30°F , -1°C
Dew Point: 23°F , -5°C
Humidity: 60%
Barometer: 29.92 inHg , 1013.2 hPa
Clouds: Few Clouds
Visibility: 10 miles , 16 km
Cloud details: Few Clouds 7000 ft
2019/10/19 09:53 KAPA 190953Z 16006KT 10SM FEW070 02/M05 A2992 RMK AO2 SLP115 T00221050
KRCV - Del Norte, Colorado, USA
Distance from station: SW 81mi, 130km
Updated: Sat, 19-Oct-2019 3:55am MDT
Clear
Clear
 Wind from W
Wind: W 10 mph , 17 km/h
Temperature: 27°F , -3°C
Wind Chill: 18°F , -8°C
Dew Point: 14°F , -10°C
Humidity: 59%
Barometer: 30.05 inHg , 1017.6 hPa
Clouds: Clear
Visibility: 10 miles , 16 km
2019/10/19 09:55 KRCV 190955Z AUTO 28009KT 10SM CLR M03/M10 A3005 RMK AO2 T10261103
 
KLXV - Leadville, Colorado, USA
Distance from station: NW 81mi, 131km
Updated: Sat, 19-Oct-2019 3:53am MDT
Clear
Clear
 Wind from NNE
Wind: NNE 10 mph , 17 km/h
Temperature: 27°F , -3°C
Wind Chill: 18°F , -8°C
Dew Point: 12°F , -11°C
Humidity: 54%
Barometer: 30.03 inHg , 1016.9 hPa
Clouds: Clear
Visibility: 10 miles , 16 km
2019/10/19 09:53 KLXV 190953Z AUTO 02009KT 10SM CLR M03/M11 A3003 RMK AO2 SLP107 T10331106
KCCU - Red Cliff Pass, Colorado, USA
Distance from station: NW 88mi, 142km
Updated: Sat, 19-Oct-2019 3:49am MDT
Clear
Clear
 Wind from SW
Wind: SW 15 mph , 24 km/h, Gust: 33 mph , 54 km/h
Temperature: 25°F , -4°C
Wind Chill: 13°F , -11°C
Dew Point: 12°F , -11°C
Humidity: 59%
Barometer: 30.06 inHg , 1017.9 hPa
Clouds: Clear
Visibility: 7 miles , 11 km
2019/10/19 09:49 KCCU 190949Z AUTO 23013G29KT 180V260 7SM CLR M04/M11 A3006 RMK AO2